Time;durP1;ratioP1;P1;durP2;ratioP2;P2;SDS_P1;SDS_P2;PMS_P1;PMS_P2;Temp;Humidity;BMP_temperature;BMP_pressure;BME280_temperature;BME280_humidity;BME280_pressure;Samples;Min_cycle;Max_cycle;Signal;HPM_P1;HPM_P2
2022/12/23 00:00:37;;;;;;;0.60;0.60;;;;;;;;;;4891792;29;20923;-75
2022/12/23 00:03:04;;;;;;;0.60;0.60;;;;;;;;;;4887794;29;20490;-76
2022/12/23 00:05:34;;;;;;;0.60;0.60;;;;;;;;;;4893645;29;20538;-75
2022/12/23 00:08:04;;;;;;;0.60;0.60;;;;;;;;;;4883084;29;20493;-76
2022/12/23 00:10:31;;;;;;;0.60;0.60;;;;;;;;;;4891626;29;20557;-76
2022/12/23 00:15:45;;;;;;;0.60;0.60;;;;;;;;;;4891862;29;20454;-76
2022/12/23 00:18:12;;;;;;;0.60;0.60;;;;;;;;;;4891309;29;20515;-76
2022/12/23 00:20:38;;;;;;;0.60;0.60;;;;;;;;;;4891532;29;20924;-76
2022/12/23 00:23:05;;;;;;;0.60;0.60;;;;;;;;;;4894167;29;20478;-76
2022/12/23 00:25:44;;;;;;;0.60;0.60;;;;;;;;;;4892822;29;20467;-75
2022/12/23 00:28:13;;;;;;;0.60;0.60;;;;;;;;;;4892480;29;20443;-76
2022/12/23 00:30:45;;;;;;;0.60;0.60;;;;;;;;;;4889989;29;20446;-75
2022/12/23 00:33:15;;;;;;;0.60;0.60;;;;;;;;;;4892449;29;20464;-75
2022/12/23 00:35:43;;;;;;;0.60;0.60;;;;;;;;;;4892086;29;20457;-76
2022/12/23 00:38:10;;;;;;;0.60;0.60;;;;;;;;;;4878543;29;20460;-75
2022/12/23 00:43:23;;;;;;;0.60;0.60;;;;;;;;;;4882969;29;20477;-75
2022/12/23 00:45:51;;;;;;;0.60;0.60;;;;;;;;;;4878715;29;20433;-75
2022/12/23 00:51:05;;;;;;;0.63;0.63;;;;;;;;;;4891403;29;20509;-75
2022/12/23 00:53:32;;;;;;;0.60;0.60;;;;;;;;;;4885760;29;20436;-75
2022/12/23 00:55:59;;;;;;;0.60;0.60;;;;;;;;;;4883064;29;20488;-75
2022/12/23 00:58:26;;;;;;;0.60;0.60;;;;;;;;;;4884080;29;20481;-75
2022/12/23 01:06:25;;;;;;;0.60;0.50;;;;;;;;;;4888516;29;20447;-76
2022/12/23 01:08:52;;;;;;;0.60;0.60;;;;;;;;;;4893196;29;20508;-76
2022/12/23 01:11:19;;;;;;;0.60;0.60;;;;;;;;;;4889411;29;20446;-76
2022/12/23 01:13:46;;;;;;;0.60;0.60;;;;;;;;;;4893812;29;20512;-75
2022/12/23 01:16:14;;;;;;;0.60;0.60;;;;;;;;;;4893450;29;20537;-77
2022/12/23 01:18:43;;;;;;;0.63;0.63;;;;;;;;;;4891371;29;20505;-75
2022/12/23 01:21:12;;;;;;;0.60;0.60;;;;;;;;;;4891717;29;20448;-75
2022/12/23 01:23:39;;;;;;;0.60;0.60;;;;;;;;;;4872906;29;20494;-75
2022/12/23 01:26:07;;;;;;;0.60;0.60;;;;;;;;;;4891665;29;20486;-75
2022/12/23 01:28:34;;;;;;;0.60;0.60;;;;;;;;;;4891823;29;20959;-76
2022/12/23 01:31:01;;;;;;;0.60;0.60;;;;;;;;;;4882139;29;20868;-76
2022/12/23 01:33:31;;;;;;;0.60;0.60;;;;;;;;;;4886832;29;20474;-76
2022/12/23 01:36:01;;;;;;;0.63;0.63;;;;;;;;;;4890678;29;20442;-75
2022/12/23 01:38:28;;;;;;;0.60;0.60;;;;;;;;;;4899309;29;20457;-75
2022/12/23 01:40:56;;;;;;;0.60;0.60;;;;;;;;;;4898643;29;20449;-76
2022/12/23 01:43:23;;;;;;;0.60;0.60;;;;;;;;;;4891398;29;20842;-75
2022/12/23 01:45:49;;;;;;;0.60;0.60;;;;;;;;;;4892109;29;20449;-76
2022/12/23 01:48:20;;;;;;;0.60;0.60;;;;;;;;;;4888671;29;20467;-76
2022/12/23 01:50:51;;;;;;;0.60;0.60;;;;;;;;;;4890045;29;20459;-76
2022/12/23 01:53:19;;;;;;;0.60;0.50;;;;;;;;;;4897788;29;20475;-76
2022/12/23 01:55:47;;;;;;;0.70;0.70;;;;;;;;;;4894352;29;20550;-75
2022/12/23 01:58:16;;;;;;;0.60;0.60;;;;;;;;;;4910925;29;20920;-77
2022/12/23 02:03:43;;;;;;;0.60;0.57;;;;;;;;;;4897943;29;20481;-75
2022/12/23 02:09:17;;;;;;;0.60;0.60;;;;;;;;;;4889586;29;20452;-74
2022/12/23 02:11:59;;;;;;;0.70;0.70;;;;;;;;;;4888173;29;20541;-74
2022/12/23 02:17:45;;;;;;;0.60;0.60;;;;;;;;;;4886385;29;20464;-75
2022/12/23 02:20:31;;;;;;;0.60;0.60;;;;;;;;;;4896143;29;20800;-75
2022/12/23 02:23:11;;;;;;;0.60;0.60;;;;;;;;;;4895519;29;20503;-74
2022/12/23 02:25:46;;;;;;;0.70;0.70;;;;;;;;;;4904012;29;20509;-74
2022/12/23 02:28:27;;;;;;;0.60;0.60;;;;;;;;;;4888140;29;20483;-74
2022/12/23 02:31:09;;;;;;;0.60;0.60;;;;;;;;;;4910877;29;20566;-74
2022/12/23 02:33:48;;;;;;;1.83;1.67;;;;;;;;;;4881571;29;20492;-75
2022/12/23 02:36:26;;;;;;;0.60;0.60;;;;;;;;;;4882473;29;20459;-75
2022/12/23 02:39:00;;;;;;;0.70;0.70;;;;;;;;;;4884418;29;20499;-74
2022/12/23 02:41:36;;;;;;;0.60;0.50;;;;;;;;;;4894907;29;20452;-74
2022/12/23 02:44:11;;;;;;;1.30;1.20;;;;;;;;;;4902749;29;20572;-75
2022/12/23 02:46:46;;;;;;;0.60;0.60;;;;;;;;;;4891040;29;20462;-75
2022/12/23 02:49:19;;;;;;;0.60;0.60;;;;;;;;;;4886071;29;20554;-75
2022/12/23 02:51:50;;;;;;;0.60;0.60;;;;;;;;;;4879463;29;21060;-74
2022/12/23 02:54:24;;;;;;;0.67;0.67;;;;;;;;;;4894847;29;20457;-75
2022/12/23 02:56:57;;;;;;;0.60;0.60;;;;;;;;;;4887726;29;20435;-76
2022/12/23 02:59:27;;;;;;;0.60;0.60;;;;;;;;;;4892783;29;20848;-75
2022/12/23 03:01:59;;;;;;;0.63;0.63;;;;;;;;;;4880065;29;20549;-75
2022/12/23 03:04:28;;;;;;;0.60;0.60;;;;;;;;;;4889461;29;20823;-76
2022/12/23 03:06:59;;;;;;;0.60;0.60;;;;;;;;;;4904859;29;20895;-76
2022/12/23 03:09:42;;;;;;;0.70;0.70;;;;;;;;;;4895387;29;20960;-76
2022/12/23 03:12:20;;;;;;;0.60;0.60;;;;;;;;;;4906055;29;20466;-75
2022/12/23 03:15:00;;;;;;;0.60;0.60;;;;;;;;;;4904145;29;20442;-75
2022/12/23 03:17:36;;;;;;;0.60;0.50;;;;;;;;;;4902890;29;20881;-76
2022/12/23 03:20:12;;;;;;;0.60;0.60;;;;;;;;;;4900074;29;20550;-75
2022/12/23 03:22:50;;;;;;;0.63;0.63;;;;;;;;;;4888722;29;20447;-76
2022/12/23 03:25:23;;;;;;;0.60;0.60;;;;;;;;;;4887737;29;20516;-75
2022/12/23 03:27:56;;;;;;;0.60;0.57;;;;;;;;;;4892479;29;20449;-76
2022/12/23 03:30:28;;;;;;;0.60;0.60;;;;;;;;;;4889601;29;20801;-76
2022/12/23 03:33:04;;;;;;;0.60;0.60;;;;;;;;;;4893149;29;20491;-76
2022/12/23 03:35:37;;;;;;;0.60;0.50;;;;;;;;;;4887435;29;20454;-76
2022/12/23 03:38:09;;;;;;;0.60;0.60;;;;;;;;;;4899681;29;20462;-75
2022/12/23 03:40:42;;;;;;;0.60;0.60;;;;;;;;;;4882269;29;20510;-75
2022/12/23 03:43:17;;;;;;;0.60;0.60;;;;;;;;;;4893126;29;20552;-74
2022/12/23 03:45:47;;;;;;;0.63;0.60;;;;;;;;;;4888568;29;20453;-75
2022/12/23 03:48:19;;;;;;;2.23;0.93;;;;;;;;;;4894375;29;21474;-73
2022/12/23 03:50:52;;;;;;;0.60;0.60;;;;;;;;;;4870545;29;20462;-74
2022/12/23 03:53:23;;;;;;;0.60;0.60;;;;;;;;;;4879143;29;20535;-74
2022/12/23 03:55:56;;;;;;;0.60;0.60;;;;;;;;;;4892120;29;20992;-75
2022/12/23 03:58:28;;;;;;;0.60;0.60;;;;;;;;;;4885739;29;20469;-76
2022/12/23 04:01:03;;;;;;;0.60;0.60;;;;;;;;;;4879241;29;20461;-75
2022/12/23 04:03:34;;;;;;;0.67;0.67;;;;;;;;;;4883543;29;20866;-75
2022/12/23 04:06:02;;;;;;;0.60;0.60;;;;;;;;;;4896512;29;20442;-76
2022/12/23 04:08:32;;;;;;;0.60;0.57;;;;;;;;;;4894436;29;20464;-75
2022/12/23 04:10:59;;;;;;;0.60;0.60;;;;;;;;;;4886862;29;20478;-75
2022/12/23 04:13:27;;;;;;;0.70;0.70;;;;;;;;;;4892377;29;20530;-75
2022/12/23 04:15:56;;;;;;;0.73;0.73;;;;;;;;;;4895644;29;20444;-74
2022/12/23 04:18:23;;;;;;;0.60;0.60;;;;;;;;;;4893252;29;20467;-75
2022/12/23 04:20:51;;;;;;;0.60;0.60;;;;;;;;;;4891746;29;20442;-74
2022/12/23 04:23:18;;;;;;;0.60;0.50;;;;;;;;;;4890934;29;20969;-76
2022/12/23 04:25:45;;;;;;;0.60;0.60;;;;;;;;;;4890061;29;20522;-74
2022/12/23 04:28:12;;;;;;;0.60;0.50;;;;;;;;;;4887485;29;20918;-75
2022/12/23 04:30:39;;;;;;;0.60;0.60;;;;;;;;;;4893461;29;20464;-76
2022/12/23 04:33:09;;;;;;;0.60;0.50;;;;;;;;;;4868701;29;20488;-75
2022/12/23 04:35:36;;;;;;;0.60;0.50;;;;;;;;;;4891138;29;20803;-76
2022/12/23 04:38:04;;;;;;;0.60;0.60;;;;;;;;;;4891374;29;20451;-75
2022/12/23 04:40:53;;;;;;;0.60;0.60;;;;;;;;;;4892437;29;21060;-75
2022/12/23 04:43:20;;;;;;;0.60;0.60;;;;;;;;;;4878091;29;20444;-75
2022/12/23 04:45:49;;;;;;;0.90;0.90;;;;;;;;;;4887392;29;20451;-76
2022/12/23 04:48:18;;;;;;;0.60;0.60;;;;;;;;;;4886811;29;20509;-76
2022/12/23 04:50:45;;;;;;;0.60;0.60;;;;;;;;;;4884621;29;21203;-75
2022/12/23 04:53:13;;;;;;;0.60;0.60;;;;;;;;;;4893089;29;20464;-76
2022/12/23 04:55:39;;;;;;;0.60;0.60;;;;;;;;;;4888668;29;21024;-76
2022/12/23 04:58:06;;;;;;;0.60;0.60;;;;;;;;;;4887263;29;20546;-76
2022/12/23 05:00:35;;;;;;;0.60;0.60;;;;;;;;;;4885266;29;20507;-76
2022/12/23 05:03:05;;;;;;;0.60;0.50;;;;;;;;;;4887351;29;20519;-75
2022/12/23 05:05:32;;;;;;;0.60;0.60;;;;;;;;;;4892357;29;20481;-76
2022/12/23 05:08:01;;;;;;;0.60;0.60;;;;;;;;;;4891741;29;20458;-76
2022/12/23 05:10:30;;;;;;;0.70;0.70;;;;;;;;;;4888925;29;20947;-76
2022/12/23 05:12:57;;;;;;;0.60;0.60;;;;;;;;;;4888260;29;20456;-76
2022/12/23 05:15:24;;;;;;;0.60;0.50;;;;;;;;;;4894614;29;20445;-74
2022/12/23 05:17:51;;;;;;;0.60;0.60;;;;;;;;;;4894009;29;20470;-76
2022/12/23 05:20:17;;;;;;;0.60;0.50;;;;;;;;;;4893415;29;20494;-75
2022/12/23 05:22:48;;;;;;;0.60;0.60;;;;;;;;;;4892626;29;20547;-75
2022/12/23 05:25:14;;;;;;;0.60;0.60;;;;;;;;;;4903770;29;21085;-76
2022/12/23 05:27:43;;;;;;;0.60;0.60;;;;;;;;;;4895017;29;20453;-75
2022/12/23 05:30:10;;;;;;;0.60;0.60;;;;;;;;;;4882187;29;20475;-75
2022/12/23 05:32:38;;;;;;;0.60;0.60;;;;;;;;;;4894301;29;20480;-76
2022/12/23 05:35:06;;;;;;;0.60;0.60;;;;;;;;;;4897757;29;20467;-77
2022/12/23 05:37:32;;;;;;;0.60;0.60;;;;;;;;;;4886377;29;20448;-76
2022/12/23 05:40:00;;;;;;;0.60;0.60;;;;;;;;;;4887037;29;20558;-77
2022/12/23 05:42:26;;;;;;;0.60;0.50;;;;;;;;;;4880275;29;20576;-76
2022/12/23 05:44:54;;;;;;;0.60;0.60;;;;;;;;;;4878489;29;20491;-75
2022/12/23 05:47:21;;;;;;;0.60;0.60;;;;;;;;;;4881209;29;20961;-75
2022/12/23 05:49:49;;;;;;;0.60;0.50;;;;;;;;;;4898374;29;20464;-76
2022/12/23 05:52:16;;;;;;;0.60;0.60;;;;;;;;;;4890152;29;20456;-76
2022/12/23 05:54:43;;;;;;;0.60;0.60;;;;;;;;;;4892098;29;20463;-76
2022/12/23 05:57:10;;;;;;;0.60;0.60;;;;;;;;;;4892112;29;20447;-75
2022/12/23 05:59:36;;;;;;;0.60;0.60;;;;;;;;;;4881204;29;20769;-75
2022/12/23 06:02:04;;;;;;;0.60;0.60;;;;;;;;;;4879955;29;20534;-74
2022/12/23 06:04:32;;;;;;;0.70;0.70;;;;;;;;;;4878237;29;20564;-76
2022/12/23 06:06:59;;;;;;;0.60;0.60;;;;;;;;;;4893437;29;20520;-77
2022/12/23 06:09:25;;;;;;;0.60;0.60;;;;;;;;;;4895454;29;20462;-75
2022/12/23 06:11:52;;;;;;;0.63;0.63;;;;;;;;;;4886827;29;20543;-76
2022/12/23 06:14:19;;;;;;;0.60;0.60;;;;;;;;;;4895861;29;20450;-76
2022/12/23 06:16:54;;;;;;;1.07;0.83;;;;;;;;;;4887658;29;20444;-76
2022/12/23 06:19:23;;;;;;;0.60;0.60;;;;;;;;;;4894260;29;20459;-77
2022/12/23 06:21:49;;;;;;;0.60;0.60;;;;;;;;;;4896052;29;20481;-75
2022/12/23 06:24:16;;;;;;;0.60;0.60;;;;;;;;;;4893017;29;20614;-76
2022/12/23 06:26:43;;;;;;;0.60;0.60;;;;;;;;;;4888483;29;20454;-76
2022/12/23 06:29:10;;;;;;;0.60;0.60;;;;;;;;;;4897598;29;20470;-76
2022/12/23 06:31:38;;;;;;;0.60;0.60;;;;;;;;;;4893072;29;20433;-77
2022/12/23 06:34:05;;;;;;;0.67;0.67;;;;;;;;;;4896677;29;20473;-76
2022/12/23 06:36:36;;;;;;;0.60;0.60;;;;;;;;;;4887718;29;20454;-74
2022/12/23 06:39:03;;;;;;;0.70;0.70;;;;;;;;;;4896008;29;20440;-74
2022/12/23 06:41:30;;;;;;;0.70;0.70;;;;;;;;;;4894340;29;21001;-76
2022/12/23 06:43:57;;;;;;;0.60;0.60;;;;;;;;;;4895884;29;20481;-74
2022/12/23 06:46:23;;;;;;;0.70;0.70;;;;;;;;;;4895954;29;20527;-76
2022/12/23 06:48:51;;;;;;;0.60;0.60;;;;;;;;;;4892262;29;20574;-75
2022/12/23 06:51:18;;;;;;;0.60;0.50;;;;;;;;;;4895871;29;20876;-76
2022/12/23 06:53:46;;;;;;;0.60;0.60;;;;;;;;;;4894448;29;21209;-76
2022/12/23 06:56:14;;;;;;;0.60;0.60;;;;;;;;;;4889496;29;20848;-76
2022/12/23 06:58:40;;;;;;;0.70;0.70;;;;;;;;;;4888538;29;20823;-76
2022/12/23 07:01:09;;;;;;;0.60;0.53;;;;;;;;;;4907341;29;20455;-76
2022/12/23 07:03:36;;;;;;;0.60;0.60;;;;;;;;;;4895755;29;20483;-76
2022/12/23 07:06:03;;;;;;;0.70;0.70;;;;;;;;;;4895444;29;20543;-76
2022/12/23 07:08:30;;;;;;;0.60;0.60;;;;;;;;;;4892788;29;20487;-76
2022/12/23 07:10:59;;;;;;;0.60;0.60;;;;;;;;;;4879056;29;20449;-76
2022/12/23 07:13:27;;;;;;;0.60;0.60;;;;;;;;;;4894239;29;20437;-76
2022/12/23 07:15:54;;;;;;;0.60;0.60;;;;;;;;;;4882196;29;20444;-76
2022/12/23 07:18:21;;;;;;;0.70;0.70;;;;;;;;;;4883051;29;20559;-76
2022/12/23 07:20:48;;;;;;;0.60;0.50;;;;;;;;;;4871236;29;20466;-75
2022/12/23 07:23:16;;;;;;;0.60;0.60;;;;;;;;;;4900338;29;20452;-76
2022/12/23 07:25:43;;;;;;;0.60;0.57;;;;;;;;;;4905450;29;20826;-76
2022/12/23 07:28:11;;;;;;;0.60;0.60;;;;;;;;;;4897992;29;20544;-76
2022/12/23 07:30:39;;;;;;;0.60;0.60;;;;;;;;;;4891632;29;20453;-75
2022/12/23 07:33:06;;;;;;;0.60;0.60;;;;;;;;;;4896339;29;20493;-76
2022/12/23 07:35:33;;;;;;;0.60;0.60;;;;;;;;;;4893638;29;20498;-76
2022/12/23 07:38:04;;;;;;;0.60;0.60;;;;;;;;;;4906874;29;20523;-75
2022/12/23 07:40:31;;;;;;;0.60;0.60;;;;;;;;;;4882965;29;20520;-76
2022/12/23 07:42:58;;;;;;;0.60;0.60;;;;;;;;;;4888489;29;20502;-76
2022/12/23 07:45:28;;;;;;;0.60;0.60;;;;;;;;;;4890300;29;20783;-75
2022/12/23 07:47:56;;;;;;;0.60;0.60;;;;;;;;;;4892394;29;20469;-77
2022/12/23 07:50:23;;;;;;;0.60;0.60;;;;;;;;;;4894864;29;20471;-76
2022/12/23 07:52:54;;;;;;;0.60;0.50;;;;;;;;;;4885476;29;20486;-76
2022/12/23 07:55:22;;;;;;;0.60;0.50;;;;;;;;;;4896202;29;20903;-76
2022/12/23 07:57:49;;;;;;;0.70;0.60;;;;;;;;;;4897951;29;20445;-76
2022/12/23 08:00:16;;;;;;;0.70;0.70;;;;;;;;;;4882727;29;20441;-76
2022/12/23 08:02:45;;;;;;;0.63;0.63;;;;;;;;;;4902113;29;20778;-76
2022/12/23 08:05:12;;;;;;;0.60;0.60;;;;;;;;;;4895205;29;20475;-76
2022/12/23 08:07:43;;;;;;;0.70;0.70;;;;;;;;;;4879129;29;20563;-75
2022/12/23 08:10:11;;;;;;;1.00;1.00;;;;;;;;;;4889992;29;20506;-75
2022/12/23 08:12:39;;;;;;;1.20;0.93;;;;;;;;;;4885552;29;20471;-76
2022/12/23 08:15:06;;;;;;;0.60;0.60;;;;;;;;;;4894880;29;20453;-75
2022/12/23 08:17:33;;;;;;;0.60;0.60;;;;;;;;;;4889917;29;21077;-76
2022/12/23 08:20:02;;;;;;;0.60;0.60;;;;;;;;;;4894386;29;20813;-76
2022/12/23 08:22:29;;;;;;;0.60;0.60;;;;;;;;;;4890481;29;20830;-76
2022/12/23 08:24:58;;;;;;;1.13;1.00;;;;;;;;;;4871210;29;21004;-76
2022/12/23 08:27:27;;;;;;;0.60;0.50;;;;;;;;;;4881604;29;20861;-76
2022/12/23 08:29:54;;;;;;;0.60;0.60;;;;;;;;;;4887809;29;20439;-76
2022/12/23 08:32:21;;;;;;;0.60;0.60;;;;;;;;;;4887424;29;20869;-74
2022/12/23 08:34:48;;;;;;;0.60;0.60;;;;;;;;;;4901535;29;20471;-75
2022/12/23 08:37:17;;;;;;;0.60;0.60;;;;;;;;;;4893748;29;20473;-77
2022/12/23 08:39:44;;;;;;;0.60;0.50;;;;;;;;;;4892465;29;20439;-75
2022/12/23 08:42:11;;;;;;;0.60;0.60;;;;;;;;;;4890789;29;20466;-75
2022/12/23 08:44:37;;;;;;;0.60;0.60;;;;;;;;;;4884442;29;20442;-75
2022/12/23 08:47:04;;;;;;;0.60;0.50;;;;;;;;;;4892020;29;20463;-75
2022/12/23 08:49:31;;;;;;;0.60;0.60;;;;;;;;;;4894250;29;20510;-75
2022/12/23 08:51:58;;;;;;;0.70;0.70;;;;;;;;;;4887310;29;20531;-75
2022/12/23 08:54:28;;;;;;;0.60;0.60;;;;;;;;;;4888712;29;20445;-76
2022/12/23 08:56:55;;;;;;;0.60;0.60;;;;;;;;;;4892350;29;20971;-76
2022/12/23 08:59:21;;;;;;;0.60;0.60;;;;;;;;;;4891330;29;20803;-75
2022/12/23 09:01:48;;;;;;;0.60;0.60;;;;;;;;;;4887145;29;20545;-75
2022/12/23 09:04:15;;;;;;;0.60;0.60;;;;;;;;;;4892577;29;20513;-74
2022/12/23 09:06:43;;;;;;;1.00;0.90;;;;;;;;;;4894973;29;20581;-76
2022/12/23 09:09:10;;;;;;;0.60;0.60;;;;;;;;;;4879385;29;20597;-76
2022/12/23 09:11:38;;;;;;;0.63;0.63;;;;;;;;;;4885924;29;20448;-76
2022/12/23 09:14:07;;;;;;;0.60;0.60;;;;;;;;;;4891054;29;21179;-75
2022/12/23 09:16:35;;;;;;;0.60;0.60;;;;;;;;;;4892008;29;20454;-75
2022/12/23 09:19:02;;;;;;;0.60;0.60;;;;;;;;;;4891779;29;20853;-76
2022/12/23 09:21:29;;;;;;;0.60;0.53;;;;;;;;;;4880908;29;20953;-75
2022/12/23 09:23:56;;;;;;;0.60;0.60;;;;;;;;;;4892688;29;20432;-75
2022/12/23 09:26:24;;;;;;;0.60;0.60;;;;;;;;;;4880397;29;20484;-76
2022/12/23 09:28:55;;;;;;;0.60;0.60;;;;;;;;;;4903038;29;20465;-74
2022/12/23 09:31:22;;;;;;;0.60;0.60;;;;;;;;;;4894510;29;20519;-74
2022/12/23 09:33:51;;;;;;;0.60;0.60;;;;;;;;;;4892630;29;20535;-75
2022/12/23 09:36:18;;;;;;;0.60;0.60;;;;;;;;;;4892457;29;21171;-76
2022/12/23 09:38:46;;;;;;;0.60;0.60;;;;;;;;;;4893899;29;20876;-75
2022/12/23 09:41:19;;;;;;;0.60;0.60;;;;;;;;;;4907368;29;20556;-74
2022/12/23 09:43:49;;;;;;;0.60;0.60;;;;;;;;;;4891107;29;20457;-74
2022/12/23 09:46:19;;;;;;;0.60;0.60;;;;;;;;;;4884733;29;20479;-76
2022/12/23 09:48:51;;;;;;;0.60;0.60;;;;;;;;;;4895570;29;20878;-77
2022/12/23 09:51:20;;;;;;;0.60;0.60;;;;;;;;;;4896146;29;20448;-75
2022/12/23 09:53:51;;;;;;;0.60;0.60;;;;;;;;;;4896912;29;20453;-74
2022/12/23 09:56:22;;;;;;;0.60;0.60;;;;;;;;;;4890520;29;20486;-74
2022/12/23 09:58:52;;;;;;;0.60;0.60;;;;;;;;;;4897975;29;20459;-76
2022/12/23 10:01:23;;;;;;;0.60;0.60;;;;;;;;;;4891123;29;20872;-74
2022/12/23 10:04:00;;;;;;;0.83;0.80;;;;;;;;;;4898202;29;20469;-76
2022/12/23 10:06:28;;;;;;;0.60;0.50;;;;;;;;;;4893630;29;20464;-77
2022/12/23 10:08:58;;;;;;;0.60;0.60;;;;;;;;;;4900121;29;20551;-75
2022/12/23 10:11:28;;;;;;;0.60;0.60;;;;;;;;;;4910346;29;20985;-75
2022/12/23 10:13:57;;;;;;;0.60;0.60;;;;;;;;;;4896361;29;20448;-75
2022/12/23 10:16:28;;;;;;;0.60;0.60;;;;;;;;;;4895582;29;20449;-76
2022/12/23 10:18:58;;;;;;;0.60;0.60;;;;;;;;;;4901557;29;20474;-76
2022/12/23 10:21:29;;;;;;;0.60;0.60;;;;;;;;;;4896172;29;20482;-76
2022/12/23 10:23:56;;;;;;;0.60;0.60;;;;;;;;;;4912515;29;20446;-75
2022/12/23 10:26:24;;;;;;;0.60;0.60;;;;;;;;;;4898419;29;20966;-76
2022/12/23 10:28:59;;;;;;;0.60;0.50;;;;;;;;;;4901931;29;20463;-77
2022/12/23 10:31:32;;;;;;;0.60;0.60;;;;;;;;;;4902673;29;20462;-77
2022/12/23 10:34:12;;;;;;;0.70;0.70;;;;;;;;;;4895925;29;20901;-76
2022/12/23 10:36:45;;;;;;;0.67;0.67;;;;;;;;;;4891535;29;20967;-76
2022/12/23 10:39:18;;;;;;;0.60;0.60;;;;;;;;;;4889955;29;20443;-75
2022/12/23 10:41:49;;;;;;;1.53;1.43;;;;;;;;;;4891947;29;20463;-76
2022/12/23 10:44:22;;;;;;;0.70;0.70;;;;;;;;;;4884055;29;20459;-77
2022/12/23 10:46:56;;;;;;;0.60;0.60;;;;;;;;;;4900265;29;20503;-76
2022/12/23 10:49:31;;;;;;;1.13;1.10;;;;;;;;;;4887082;29;20493;-78
2022/12/23 10:51:59;;;;;;;0.60;0.60;;;;;;;;;;4911723;29;21153;-77
2022/12/23 10:54:30;;;;;;;0.60;0.60;;;;;;;;;;4889783;29;20456;-76
2022/12/23 10:56:58;;;;;;;0.60;0.60;;;;;;;;;;4890813;29;20440;-77
2022/12/23 10:59:25;;;;;;;1.07;1.07;;;;;;;;;;4895932;29;20542;-76
2022/12/23 11:01:56;;;;;;;0.60;0.60;;;;;;;;;;4893524;29;20473;-75
2022/12/23 11:04:28;;;;;;;0.60;0.57;;;;;;;;;;4889432;29;20508;-78
2022/12/23 11:06:55;;;;;;;0.60;0.60;;;;;;;;;;4893876;29;20481;-77
2022/12/23 11:09:44;;;;;;;0.60;0.60;;;;;;;;;;4896425;29;20474;-76
2022/12/23 11:12:11;;;;;;;0.60;0.60;;;;;;;;;;4894943;29;20793;-76
2022/12/23 11:14:40;;;;;;;0.60;0.60;;;;;;;;;;4867341;29;20492;-76
2022/12/23 11:17:19;;;;;;;0.60;0.60;;;;;;;;;;4885490;29;20471;-76
2022/12/23 11:20:04;;;;;;;0.60;0.60;;;;;;;;;;4903811;29;20456;-76
2022/12/23 11:22:31;;;;;;;0.70;0.70;;;;;;;;;;4897000;29;20554;-75
2022/12/23 11:25:16;;;;;;;0.60;0.50;;;;;;;;;;4893777;29;20560;-76
2022/12/23 11:27:43;;;;;;;0.60;0.60;;;;;;;;;;4888602;29;20466;-76
2022/12/23 11:30:16;;;;;;;0.60;0.60;;;;;;;;;;4894516;29;20461;-75
2022/12/23 11:32:44;;;;;;;0.70;0.70;;;;;;;;;;4893183;29;20471;-74
2022/12/23 11:35:22;;;;;;;0.60;0.60;;;;;;;;;;4895133;29;20967;-73
2022/12/23 11:37:49;;;;;;;0.60;0.60;;;;;;;;;;4893495;29;20547;-75
2022/12/23 11:40:20;;;;;;;0.60;0.50;;;;;;;;;;4896315;29;21320;-72
2022/12/23 11:42:47;;;;;;;0.87;0.87;;;;;;;;;;4887925;29;20449;-72
2022/12/23 11:45:21;;;;;;;0.60;0.50;;;;;;;;;;4894002;29;20462;-72
2022/12/23 11:47:50;;;;;;;0.60;0.57;;;;;;;;;;4901348;29;20493;-74
2022/12/23 11:50:36;;;;;;;0.60;0.50;;;;;;;;;;4893115;29;20920;-74
2022/12/23 11:53:09;;;;;;;0.60;0.60;;;;;;;;;;4908455;29;20497;-74
2022/12/23 11:55:38;;;;;;;0.60;0.50;;;;;;;;;;4894005;29;20785;-74
2022/12/23 11:58:14;;;;;;;0.60;0.50;;;;;;;;;;4889095;29;20443;-76
2022/12/23 12:00:48;;;;;;;0.60;0.60;;;;;;;;;;4892085;29;20792;-75
2022/12/23 12:03:25;;;;;;;0.60;0.50;;;;;;;;;;4905086;29;20472;-74
2022/12/23 12:05:53;;;;;;;0.60;0.50;;;;;;;;;;4902798;29;20552;-75
2022/12/23 12:08:25;;;;;;;0.60;0.50;;;;;;;;;;4894182;29;20504;-74
2022/12/23 12:10:59;;;;;;;0.60;0.50;;;;;;;;;;4907077;29;20474;-74
2022/12/23 12:13:28;;;;;;;0.70;0.70;;;;;;;;;;4890329;29;20935;-75
2022/12/23 12:16:01;;;;;;;0.80;0.80;;;;;;;;;;4890018;29;20552;-75
2022/12/23 12:18:29;;;;;;;0.60;0.50;;;;;;;;;;4892091;29;20537;-74
2022/12/23 12:20:59;;;;;;;0.60;0.60;;;;;;;;;;4891682;29;20480;-76
2022/12/23 12:23:28;;;;;;;0.60;0.50;;;;;;;;;;4893503;29;20475;-74
2022/12/23 12:25:57;;;;;;;0.60;0.57;;;;;;;;;;4893938;29;20967;-72
2022/12/23 12:28:25;;;;;;;0.60;0.50;;;;;;;;;;4891307;29;20460;-73
2022/12/23 12:30:55;;;;;;;0.60;0.60;;;;;;;;;;4890802;29;20440;-74
2022/12/23 12:33:28;;;;;;;0.60;0.50;;;;;;;;;;4895728;29;20475;-74
2022/12/23 12:36:00;;;;;;;0.60;0.60;;;;;;;;;;4892987;29;20492;-74
2022/12/23 12:38:32;;;;;;;0.60;0.50;;;;;;;;;;4891616;29;20482;-74
2022/12/23 12:41:01;;;;;;;0.60;0.57;;;;;;;;;;4884538;29;20469;-74
2022/12/23 12:43:30;;;;;;;0.87;0.87;;;;;;;;;;4888168;29;20539;-72
2022/12/23 12:46:05;;;;;;;0.60;0.50;;;;;;;;;;4887942;29;20932;-74
2022/12/23 12:48:39;;;;;;;0.60;0.60;;;;;;;;;;4886276;29;20471;-73
2022/12/23 12:51:11;;;;;;;0.60;0.60;;;;;;;;;;4885536;29;20444;-74
2022/12/23 12:53:47;;;;;;;0.60;0.60;;;;;;;;;;4888077;29;20447;-73
2022/12/23 12:56:23;;;;;;;0.60;0.60;;;;;;;;;;4887890;29;20433;-75
2022/12/23 12:58:50;;;;;;;0.60;0.60;;;;;;;;;;4883436;29;20455;-73
2022/12/23 13:01:22;;;;;;;0.60;0.50;;;;;;;;;;4893756;29;20463;-73
2022/12/23 13:04:04;;;;;;;0.60;0.60;;;;;;;;;;4894270;29;20812;-73
2022/12/23 13:06:38;;;;;;;0.60;0.60;;;;;;;;;;4892530;29;20478;-73
2022/12/23 13:09:08;;;;;;;0.60;0.60;;;;;;;;;;4890934;29;20507;-73
2022/12/23 13:11:43;;;;;;;0.60;0.60;;;;;;;;;;4899804;29;20456;-74
2022/12/23 13:14:16;;;;;;;0.60;0.60;;;;;;;;;;4886664;29;20964;-74
2022/12/23 13:16:46;;;;;;;0.60;0.60;;;;;;;;;;4894201;29;20964;-74
2022/12/23 13:19:19;;;;;;;0.60;0.50;;;;;;;;;;4894092;29;20473;-74
2022/12/23 13:21:49;;;;;;;0.60;0.60;;;;;;;;;;4891919;29;21138;-74
2022/12/23 13:24:18;;;;;;;0.60;0.50;;;;;;;;;;4885922;29;20475;-74
2022/12/23 13:26:51;;;;;;;0.60;0.60;;;;;;;;;;4891960;29;20915;-74
2022/12/23 13:29:33;;;;;;;0.60;0.60;;;;;;;;;;4887463;29;20440;-75
2022/12/23 13:32:02;;;;;;;0.60;0.50;;;;;;;;;;4894283;29;20509;-73
2022/12/23 13:34:35;;;;;;;0.60;0.60;;;;;;;;;;4889059;29;20445;-74
2022/12/23 13:37:08;;;;;;;0.60;0.60;;;;;;;;;;4885639;29;20444;-72
2022/12/23 13:39:45;;;;;;;0.60;0.50;;;;;;;;;;4891716;29;20463;-75
2022/12/23 13:42:23;;;;;;;0.60;0.50;;;;;;;;;;4904659;29;20474;-74
2022/12/23 13:44:51;;;;;;;0.60;0.60;;;;;;;;;;4905019;29;20549;-72
2022/12/23 13:47:23;;;;;;;0.70;0.70;;;;;;;;;;4895572;29;20487;-72
2022/12/23 13:49:56;;;;;;;0.60;0.60;;;;;;;;;;4889146;29;21183;-74
2022/12/23 13:52:28;;;;;;;0.60;0.60;;;;;;;;;;4888551;29;20455;-74
2022/12/23 13:54:59;;;;;;;0.60;0.50;;;;;;;;;;4888868;29;20492;-74
2022/12/23 13:57:36;;;;;;;0.60;0.60;;;;;;;;;;4894150;29;20480;-73
2022/12/23 14:00:23;;;;;;;0.60;0.60;;;;;;;;;;4888186;29;20509;-72
2022/12/23 14:02:50;;;;;;;0.60;0.50;;;;;;;;;;4903476;29;20562;-73
2022/12/23 14:05:44;;;;;;;0.60;0.60;;;;;;;;;;4887080;29;20445;-75
2022/12/23 14:08:24;;;;;;;0.60;0.50;;;;;;;;;;4874787;29;20571;-73
2022/12/23 14:10:53;;;;;;;0.60;0.60;;;;;;;;;;4891726;29;20509;-73
2022/12/23 14:13:22;;;;;;;0.60;0.60;;;;;;;;;;4873488;29;20478;-73
2022/12/23 14:15:57;;;;;;;0.60;0.60;;;;;;;;;;4886178;29;20439;-72
2022/12/23 14:18:34;;;;;;;0.60;0.60;;;;;;;;;;4885736;29;20511;-75
2022/12/23 14:21:08;;;;;;;0.60;0.60;;;;;;;;;;4886272;29;20454;-75
2022/12/23 14:23:41;;;;;;;0.60;0.60;;;;;;;;;;4889718;29;20454;-73
2022/12/23 14:26:25;;;;;;;0.60;0.60;;;;;;;;;;4884711;29;21022;-74
2022/12/23 14:29:02;;;;;;;0.60;0.60;;;;;;;;;;4868796;29;20826;-73
2022/12/23 14:31:30;;;;;;;0.60;0.60;;;;;;;;;;4892615;29;20532;-74
2022/12/23 14:34:02;;;;;;;0.60;0.60;;;;;;;;;;4904482;29;20501;-72
2022/12/23 14:36:28;;;;;;;0.60;0.60;;;;;;;;;;4891548;29;20445;-73
2022/12/23 14:39:10;;;;;;;0.70;0.70;;;;;;;;;;4879067;29;20471;-72
2022/12/23 14:41:47;;;;;;;0.60;0.60;;;;;;;;;;4896571;29;20535;-72
2022/12/23 14:44:17;;;;;;;0.60;0.50;;;;;;;;;;4888368;29;20846;-73
2022/12/23 14:46:53;;;;;;;0.60;0.50;;;;;;;;;;4903201;29;20465;-72
2022/12/23 14:49:21;;;;;;;0.60;0.50;;;;;;;;;;4893448;29;20473;-73
2022/12/23 14:52:23;;;;;;;0.60;0.60;;;;;;;;;;4892155;29;20943;-75
2022/12/23 14:54:50;;;;;;;0.80;0.80;;;;;;;;;;4887900;29;20969;-73
2022/12/23 14:57:39;;;;;;;0.60;0.50;;;;;;;;;;4887544;29;20540;-73
2022/12/23 15:00:08;;;;;;;0.60;0.60;;;;;;;;;;4905804;29;20445;-73
2022/12/23 15:02:37;;;;;;;0.60;0.53;;;;;;;;;;4897119;29;20472;-73
2022/12/23 15:05:05;;;;;;;0.60;0.60;;;;;;;;;;4896391;29;20472;-72
2022/12/23 15:07:33;;;;;;;0.60;0.50;;;;;;;;;;4889873;29;20517;-72
2022/12/23 15:10:01;;;;;;;0.60;0.60;;;;;;;;;;4890426;29;20844;-73
2022/12/23 15:12:29;;;;;;;0.60;0.57;;;;;;;;;;4896472;29;20508;-71
2022/12/23 15:14:59;;;;;;;0.60;0.60;;;;;;;;;;4895108;29;20448;-74
2022/12/23 15:17:28;;;;;;;0.60;0.50;;;;;;;;;;4898808;29;20485;-73
2022/12/23 15:20:04;;;;;;;0.67;0.67;;;;;;;;;;4905704;29;20451;-73
2022/12/23 15:22:31;;;;;;;0.60;0.60;;;;;;;;;;4891222;29;21001;-72
2022/12/23 15:24:58;;;;;;;0.60;0.60;;;;;;;;;;4890092;29;20453;-73